Hlavní strana
METAR-TAF:

METAR-TAF

Letiště :

Resolute, Nunavut, Kanada

zeměpisná šířka: 74-43N, zeměpisná délka: 094-59W, výška: 67 m

Aktuální stav počasí

Zpráva byla vytvořena před 18 minutami, v 17:00 UTC
Východojihovýchodní vítr 6 kt
Teplota -29°C
Vlhkost vzduchu 68%
Tlak 1010 hPa
Viditelnost: 24.1 km
Oblačno až skoro zataženo ve výšce 4000 ft
Zataženo ve výšce 22000 ft
ledové krystalky

METAR: CYRB 191700Z 12006KT 15SM IC BKN040 OVC220 M29/M33 A2983 RMK SC5CS3 SLP116

Čas: 12:18 (17:18 UTC)

Předpověď počasí

Zpráva byla vytvořena před 5 hodinami a 40 minutami, v 11:38 UTC
Předpověď platná od 19 v 12 UTC do 20 v 12 UTC
vítr z různých směrů 3 kt
Viditelnost: 10 km
Skoro jasno ve výšce 9000 ft
Změna
od 20 v 01 UTC do 20 v 03 UTC
Severoseverovýchodní vítr 10 kt

TAF: CYRB 191138Z 1912/2012 VRB03KT P6SM FEW090 BECMG 2001/2003 02010KT RMK NXT FCST BY 191800Z

Stav a předpovědi počasí z více než 4 000 letišť (zprávy METAR a TAF).

Červené a žluté tečky na mapě představují dostupné meteorologické stanice.

Když kurzor umístíte na tečku, zobrazí se název stanice.

Pak kliknutím zobrazíte stav a předpověď počasí.

Chcete-li změnit mapu, kliknutím na zelené tlačítko se znaménkem +mapu přiblížíte, kliknutím na zelené tlačítko se znaménkem – mapu oddálíte a kliknutím na zelené šipky přejdete na sousední mapy.


METAR-TAF: